createdAt,value
2023-02-11T00:03:58.572Z,8.01
2023-02-11T00:09:01.673Z,8.02
2023-02-11T00:14:09.235Z,8.03
2023-02-11T00:19:11.976Z,8.03
2023-02-11T00:24:14.764Z,8.08
2023-02-11T00:29:18.851Z,8.05
2023-02-11T00:34:25.366Z,8.02
2023-02-11T00:39:28.430Z,8.05
2023-02-11T00:44:33.358Z,8.07
2023-02-11T00:49:36.950Z,8.06
2023-02-11T00:54:39.799Z,8.07
2023-02-11T00:59:44.429Z,8.04
2023-02-11T01:04:47.221Z,8.03
2023-02-11T01:09:50.112Z,8.01
2023-02-11T01:14:54.254Z,8.03
2023-02-11T01:19:57.096Z,8.05
2023-02-11T01:24:59.886Z,8.05
2023-02-11T01:30:06.470Z,7.95
2023-02-11T01:35:09.477Z,7.81
2023-02-11T01:40:14.748Z,7.67
2023-02-11T01:45:53.997Z,7.51
2023-02-11T01:51:02.200Z,7.37
2023-02-11T01:56:23.892Z,7.23
2023-02-11T02:01:28.000Z,7.13
2023-02-11T02:06:36.076Z,7.03
2023-02-11T02:11:38.988Z,6.93
2023-02-11T02:16:41.863Z,6.89
2023-02-11T02:22:24.282Z,6.87
2023-02-11T02:27:43.033Z,6.74
2023-02-11T02:33:22.484Z,6.68
2023-02-11T02:38:28.964Z,6.67
2023-02-11T02:43:32.088Z,6.80
2023-02-11T02:48:36.524Z,6.84
2023-02-11T02:53:50.106Z,6.85
2023-02-11T02:59:15.141Z,6.80
2023-02-11T03:04:23.289Z,6.84
2023-02-11T03:09:30.780Z,6.80
2023-02-11T03:14:34.046Z,6.90
2023-02-11T03:19:39.795Z,6.85
2023-02-11T03:24:43.128Z,6.78
2023-02-11T03:29:55.864Z,6.63
2023-02-11T03:35:04.313Z,6.52
2023-02-11T03:40:10.164Z,6.37
2023-02-11T03:45:16.862Z,6.28
2023-02-11T03:50:22.555Z,6.23
2023-02-11T03:55:27.089Z,6.11
2023-02-11T04:00:31.504Z,6.03
2023-02-11T04:05:35.908Z,5.98
2023-02-11T04:10:38.696Z,6.02
2023-02-11T04:15:41.508Z,5.95
2023-02-11T04:20:45.635Z,5.92
2023-02-11T04:25:48.985Z,5.94
2023-02-11T04:30:52.374Z,5.95
2023-02-11T04:35:56.585Z,5.95
2023-02-11T04:41:00.560Z,5.94
2023-02-11T04:46:03.408Z,6.05
2023-02-11T04:51:07.726Z,6.09
2023-02-11T04:56:10.616Z,6.20
2023-02-11T05:01:16.233Z,6.27
2023-02-11T05:06:20.529Z,6.28
2023-02-11T05:11:25.396Z,6.26
2023-02-11T05:16:28.357Z,6.23
2023-02-11T05:21:34.214Z,6.01
2023-02-11T05:26:36.942Z,6.20
2023-02-11T05:31:39.728Z,6.18
2023-02-11T05:36:45.084Z,6.17
2023-02-11T05:41:47.863Z,6.17
2023-02-11T05:46:50.658Z,6.17
2023-02-11T05:51:54.793Z,6.14
2023-02-11T05:56:57.529Z,6.11
2023-02-11T06:02:00.240Z,6.10
2023-02-11T06:07:04.725Z,6.19
2023-02-11T06:12:07.882Z,6.25
2023-02-11T06:17:10.693Z,6.26
2023-02-11T06:22:17.217Z,6.26
2023-02-11T06:27:20.803Z,6.19
2023-02-11T06:32:43.981Z,6.21
2023-02-11T06:37:54.027Z,6.20
2023-02-11T06:42:56.941Z,6.19
2023-02-11T06:48:00.103Z,6.18
2023-02-11T06:53:04.300Z,6.18
2023-02-11T06:58:07.140Z,6.15
2023-02-11T07:03:10.017Z,6.14
2023-02-11T07:08:14.180Z,6.13
2023-02-11T07:13:17.106Z,6.12
2023-02-11T07:18:19.954Z,6.08
2023-02-11T07:23:24.122Z,6.07
2023-02-11T07:28:27.017Z,6.11
2023-02-11T07:33:29.924Z,6.18
2023-02-11T07:38:34.964Z,6.29
2023-02-11T07:43:38.687Z,6.41
2023-02-11T07:48:41.505Z,6.47
2023-02-11T07:53:47.885Z,6.53
2023-02-11T07:58:51.318Z,6.60
2023-02-11T08:03:54.899Z,6.69
2023-02-11T08:08:59.278Z,6.73
2023-02-11T08:14:02.119Z,6.78
2023-02-11T08:19:07.063Z,6.91
2023-02-11T08:24:11.485Z,7.00
2023-02-11T08:29:16.114Z,7.11
2023-02-11T08:34:19.484Z,7.22
2023-02-11T08:39:23.971Z,7.36
2023-02-11T08:44:26.866Z,7.42
2023-02-11T08:49:30.624Z,7.50
2023-02-11T08:54:34.828Z,7.61
2023-02-11T08:59:40.054Z,7.74
2023-02-11T09:04:42.858Z,7.84
2023-02-11T09:09:47.072Z,7.98
2023-02-11T09:14:49.911Z,8.03
2023-02-11T09:19:52.832Z,8.11
2023-02-11T09:24:57.142Z,8.17
2023-02-11T09:30:01.427Z,8.24
2023-02-11T09:35:04.405Z,8.27
2023-02-11T09:40:09.830Z,8.31
2023-02-11T09:45:18.810Z,8.31
2023-02-11T09:50:25.266Z,8.32
2023-02-11T09:55:31.681Z,8.28
2023-02-11T10:00:38.914Z,8.46
2023-02-11T10:05:59.668Z,8.53
2023-02-11T10:11:07.090Z,8.65
2023-02-11T10:16:19.100Z,8.62
2023-02-11T10:21:30.110Z,8.82
2023-02-11T10:26:34.419Z,8.95
2023-02-11T10:31:38.929Z,9.44
2023-02-11T10:36:43.300Z,9.75
2023-02-11T10:41:48.974Z,10.12
2023-02-11T10:46:52.198Z,10.23
2023-02-11T10:52:14.038Z,10.36
2023-02-11T10:57:19.895Z,10.40
2023-02-11T11:02:24.818Z,10.55
2023-02-11T11:07:29.432Z,10.74
2023-02-11T11:12:40.311Z,10.82
2023-02-11T11:17:43.902Z,10.94
2023-02-11T11:22:47.261Z,11.12
2023-02-11T11:27:52.195Z,11.08
2023-02-11T11:32:55.125Z,11.24
2023-02-11T11:38:01.775Z,11.37
2023-02-11T11:43:23.135Z,11.42
2023-02-11T11:48:29.316Z,11.43
2023-02-11T11:53:36.982Z,11.41
2023-02-11T11:58:41.230Z,11.40
2023-02-11T12:04:15.352Z,11.46
2023-02-11T12:09:25.744Z,11.32
2023-02-11T12:14:36.724Z,11.41
2023-02-11T12:19:56.309Z,11.50
2023-02-11T12:25:11.045Z,11.52
2023-02-11T12:30:24.656Z,11.38
2023-02-11T12:35:32.572Z,11.36
2023-02-11T12:40:41.418Z,11.51
2023-02-11T12:46:34.902Z,11.63
2023-02-11T12:51:51.113Z,11.64
2023-02-11T12:56:59.238Z,11.62
2023-02-11T13:02:06.880Z,11.60
2023-02-11T13:07:15.699Z,11.60
2023-02-11T13:12:36.093Z,11.53
2023-02-11T13:17:42.067Z,11.60
2023-02-11T13:22:51.825Z,11.68
2023-02-11T13:27:58.722Z,11.62
2023-02-11T13:33:21.219Z,11.51
2023-02-11T13:38:27.596Z,11.43
2023-02-11T13:43:31.791Z,11.45
2023-02-11T13:48:36.162Z,11.39
2023-02-11T13:53:48.839Z,11.39
2023-02-11T13:58:52.616Z,11.36
2023-02-11T14:04:38.438Z,11.39
2023-02-11T14:09:42.729Z,11.25
2023-02-11T14:15:19.760Z,11.27
2023-02-11T14:20:37.610Z,11.18
2023-02-11T14:25:43.500Z,11.11
2023-02-11T14:30:55.515Z,11.14
2023-02-11T14:36:06.725Z,11.09
2023-02-11T14:41:15.223Z,11.04
2023-02-11T14:46:19.344Z,11.03
2023-02-11T14:51:24.493Z,10.95
2023-02-11T14:56:31.475Z,10.87
2023-02-11T15:01:36.115Z,10.83
2023-02-11T15:06:40.852Z,10.72
2023-02-11T15:11:46.638Z,10.67
2023-02-11T15:16:50.749Z,10.60
2023-02-11T15:21:54.669Z,10.52
2023-02-11T15:27:00.705Z,10.50
2023-02-11T15:32:08.843Z,10.41
2023-02-11T15:37:14.586Z,10.32
2023-02-11T15:42:26.959Z,10.30
2023-02-11T15:47:29.980Z,10.16
2023-02-11T15:52:33.060Z,10.06
2023-02-11T15:57:37.333Z,9.92
2023-02-11T16:02:45.172Z,9.88
2023-02-11T16:07:50.404Z,9.76
2023-02-11T16:12:59.350Z,9.73
2023-02-11T16:18:02.700Z,9.60
2023-02-11T16:23:06.094Z,9.55
2023-02-11T16:28:15.162Z,9.47
2023-02-11T16:33:18.143Z,9.43
2023-02-11T16:38:21.106Z,9.36
2023-02-11T16:43:25.425Z,9.28
2023-02-11T16:48:28.343Z,9.19
2023-02-11T16:53:31.508Z,9.15
2023-02-11T16:58:35.703Z,9.13
2023-02-11T17:03:40.502Z,9.05
2023-02-11T17:08:44.387Z,9.02
2023-02-11T17:13:48.671Z,8.99
2023-02-11T17:18:52.013Z,8.94
2023-02-11T17:23:54.806Z,8.90
2023-02-11T17:28:58.980Z,8.91
2023-02-11T17:34:01.850Z,8.90
2023-02-11T17:39:08.230Z,8.88
2023-02-11T17:44:14.104Z,8.85
2023-02-11T17:49:17.026Z,8.83
2023-02-11T17:54:20.617Z,8.83
2023-02-11T17:59:25.953Z,8.85
2023-02-11T18:04:29.142Z,8.80
2023-02-11T18:09:31.983Z,8.80
2023-02-11T18:14:36.341Z,8.79
2023-02-11T18:19:39.289Z,8.76
2023-02-11T18:24:44.745Z,8.71
2023-02-11T18:29:49.438Z,8.71
2023-02-11T18:34:52.559Z,8.71
2023-02-11T18:39:55.507Z,8.69
2023-02-11T18:44:59.736Z,8.67
2023-02-11T18:50:02.586Z,8.66
2023-02-11T18:55:05.836Z,8.63
2023-02-11T19:00:11.791Z,8.61
2023-02-11T19:05:15.632Z,8.62
2023-02-11T19:10:18.785Z,8.59
2023-02-11T19:15:23.118Z,8.58
2023-02-11T19:20:25.968Z,8.57
2023-02-11T19:25:29.175Z,8.54
2023-02-11T19:30:33.486Z,8.46
2023-02-11T19:35:36.520Z,8.42
2023-02-11T19:40:39.307Z,8.40
2023-02-11T19:45:43.449Z,8.42
2023-02-11T19:50:46.288Z,8.41
2023-02-11T19:55:49.778Z,8.39
2023-02-11T20:00:54.195Z,8.40
2023-02-11T20:05:57.130Z,8.39
2023-02-11T20:11:05.942Z,8.39
2023-02-11T20:16:12.309Z,8.38
2023-02-11T20:21:17.642Z,8.34
2023-02-11T20:26:22.976Z,8.36
2023-02-11T20:31:27.376Z,8.36
2023-02-11T20:36:32.336Z,8.36
2023-02-11T20:41:36.702Z,8.34
2023-02-11T20:46:42.295Z,8.31
2023-02-11T20:51:45.168Z,8.26
2023-02-11T20:56:50.660Z,8.17
2023-02-11T21:01:56.935Z,8.02
2023-02-11T21:07:01.480Z,7.89
2023-02-11T21:12:05.389Z,7.69
2023-02-11T21:17:09.558Z,7.68
2023-02-11T21:22:12.402Z,7.58
2023-02-11T21:27:16.115Z,7.46
2023-02-11T21:32:20.353Z,7.33
2023-02-11T21:37:25.281Z,7.16
2023-02-11T21:42:28.093Z,7.04
2023-02-11T21:47:32.794Z,6.94
2023-02-11T21:52:35.611Z,6.83
2023-02-11T21:57:38.523Z,6.74
2023-02-11T22:02:42.999Z,6.66
2023-02-11T22:07:45.918Z,6.56
2023-02-11T22:12:48.744Z,6.52
2023-02-11T22:17:52.936Z,6.53
2023-02-11T22:22:55.708Z,6.53
2023-02-11T22:27:58.514Z,6.48
2023-02-11T22:33:04.089Z,6.44
2023-02-11T22:38:06.914Z,6.38
2023-02-11T22:43:09.790Z,6.37
2023-02-11T22:48:14.027Z,6.32
2023-02-11T22:53:16.864Z,6.25
2023-02-11T22:58:19.842Z,6.20
2023-02-11T23:03:24.015Z,6.14
2023-02-11T23:08:28.069Z,6.13
2023-02-11T23:13:30.804Z,6.09
2023-02-11T23:18:35.440Z,6.07
2023-02-11T23:23:38.212Z,5.98
2023-02-11T23:28:41.333Z,5.82
2023-02-11T23:33:45.963Z,5.69
2023-02-11T23:38:49.523Z,5.64
2023-02-11T23:43:53.180Z,5.59
2023-02-11T23:48:57.574Z,5.51
2023-02-11T23:54:00.443Z,5.55
2023-02-11T23:59:03.282Z,5.54
